EGLL/LHR METAR and TAF weather

Enter ICAO airport designator
Station Type Date Time Source
EGLL METAR 2021/09/28 16:50 UTC NOAA

EGLL 281650Z AUTO 19014KT 170V230 9999 //////TCU 15/12 Q1012 NOSIG


Station Type Date Time Source
EGLL Decoded METAR 2021/09/28 16:50 UTC NOAA

London / Heathrow Airport, United Kingdom (EGLL) 51-29N 000-27W 0M
Sep 28, 2021 - 12:50 PM EDT / 2021.09.28 1650 UTC
Wind: from the S (190 degrees) at 16 MPH (14 KT) (direction variable):0
Visibility: greater than 7 mile(s):0
Weather: Towering cumulus clouds observed
Temperature: 59 F (15 C)
Dew Point: 53 F (12 C)
Relative Humidity: 82%
Pressure (altimeter): 29.88 in. Hg (1012 hPa)
ob: EGLL 281650Z AUTO 19014KT 170V230 9999 //////TCU 15/12 Q1012 NOSIG
cycle: 17

Station Type Date Time Source
EGLL TAF 2021/09/28 18:09 UTC NOAA

TAF EGLL 281656Z 2818/2924 19010KT 9999 FEW025
TEMPO 2818/2823 7000 RA PROB40
TEMPO 2818/2822 2500 +RA BKN014 PROB30
TEMPO 2818/2820 19015G28KT
BECMG 2821/2824 28008KT PROB30
TEMPO 2912/2916 29015G25KT

Example: see airport list